sensor_id;sensor_type;location;lat;lon;timestamp;P1;durP1;ratioP1;P2;durP2;ratioP2
611;SDS011;293;53.888;11.464;2022-12-05T00:02:14;49.67;;;26.33;;
611;SDS011;293;53.888;11.464;2022-12-05T00:04:41;49.25;;;27.58;;
611;SDS011;293;53.888;11.464;2022-12-05T00:07:10;52.55;;;26.55;;
611;SDS011;293;53.888;11.464;2022-12-05T00:09:37;52.13;;;28.80;;
611;SDS011;293;53.888;11.464;2022-12-05T00:12:04;53.60;;;27.98;;
611;SDS011;293;53.888;11.464;2022-12-05T00:14:31;49.25;;;28.38;;
611;SDS011;293;53.888;11.464;2022-12-05T00:16:58;48.65;;;28.95;;
611;SDS011;293;53.888;11.464;2022-12-05T00:19:25;51.20;;;29.17;;
611;SDS011;293;53.888;11.464;2022-12-05T00:21:52;48.05;;;27.73;;
611;SDS011;293;53.888;11.464;2022-12-05T00:24:21;49.00;;;28.83;;
611;SDS011;293;53.888;11.464;2022-12-05T00:26:47;46.83;;;24.77;;
611;SDS011;293;53.888;11.464;2022-12-05T00:29:14;49.08;;;27.05;;
611;SDS011;293;53.888;11.464;2022-12-05T00:31:42;47.55;;;26.77;;
611;SDS011;293;53.888;11.464;2022-12-05T00:34:09;51.17;;;27.92;;
611;SDS011;293;53.888;11.464;2022-12-05T00:36:36;44.30;;;26.33;;
611;SDS011;293;53.888;11.464;2022-12-05T00:39:04;49.88;;;29.17;;
611;SDS011;293;53.888;11.464;2022-12-05T00:41:33;47.03;;;25.40;;
611;SDS011;293;53.888;11.464;2022-12-05T00:44:00;38.45;;;25.73;;
611;SDS011;293;53.888;11.464;2022-12-05T00:46:29;51.33;;;26.98;;
611;SDS011;293;53.888;11.464;2022-12-05T00:48:57;44.30;;;24.35;;
611;SDS011;293;53.888;11.464;2022-12-05T00:51:26;54.95;;;29.10;;
611;SDS011;293;53.888;11.464;2022-12-05T00:53:56;47.60;;;26.95;;
611;SDS011;293;53.888;11.464;2022-12-05T00:56:24;50.63;;;27.20;;
611;SDS011;293;53.888;11.464;2022-12-05T00:58:54;56.30;;;27.88;;
611;SDS011;293;53.888;11.464;2022-12-05T01:01:22;52.45;;;27.05;;
611;SDS011;293;53.888;11.464;2022-12-05T01:03:51;57.55;;;28.33;;
611;SDS011;293;53.888;11.464;2022-12-05T01:06:21;45.15;;;24.35;;
611;SDS011;293;53.888;11.464;2022-12-05T01:08:49;47.72;;;25.85;;
611;SDS011;293;53.888;11.464;2022-12-05T01:11:18;43.72;;;26.15;;
611;SDS011;293;53.888;11.464;2022-12-05T01:13:45;50.90;;;26.30;;
611;SDS011;293;53.888;11.464;2022-12-05T01:16:14;56.03;;;28.67;;
611;SDS011;293;53.888;11.464;2022-12-05T01:18:42;62.20;;;30.40;;
611;SDS011;293;53.888;11.464;2022-12-05T01:21:09;50.92;;;27.00;;
611;SDS011;293;53.888;11.464;2022-12-05T01:23:36;54.33;;;29.35;;
611;SDS011;293;53.888;11.464;2022-12-05T01:26:04;57.50;;;29.67;;
611;SDS011;293;53.888;11.464;2022-12-05T01:28:33;54.35;;;26.10;;
611;SDS011;293;53.888;11.464;2022-12-05T01:31:03;64.57;;;30.23;;
611;SDS011;293;53.888;11.464;2022-12-05T01:33:33;61.85;;;29.48;;
611;SDS011;293;53.888;11.464;2022-12-05T01:36:00;70.90;;;34.10;;
611;SDS011;293;53.888;11.464;2022-12-05T01:38:27;52.30;;;30.17;;
611;SDS011;293;53.888;11.464;2022-12-05T01:41:01;56.50;;;29.30;;
611;SDS011;293;53.888;11.464;2022-12-05T01:43:29;62.75;;;31.58;;
611;SDS011;293;53.888;11.464;2022-12-05T01:45:56;67.45;;;33.08;;
611;SDS011;293;53.888;11.464;2022-12-05T01:48:24;66.72;;;33.40;;
611;SDS011;293;53.888;11.464;2022-12-05T01:50:54;73.13;;;31.35;;
611;SDS011;293;53.888;11.464;2022-12-05T01:53:23;68.43;;;31.33;;
611;SDS011;293;53.888;11.464;2022-12-05T01:55:50;66.80;;;30.77;;
611;SDS011;293;53.888;11.464;2022-12-05T01:58:18;67.95;;;31.15;;
611;SDS011;293;53.888;11.464;2022-12-05T02:00:46;62.22;;;29.55;;
611;SDS011;293;53.888;11.464;2022-12-05T02:03:14;61.33;;;28.50;;
611;SDS011;293;53.888;11.464;2022-12-05T02:05:45;75.90;;;32.22;;
611;SDS011;293;53.888;11.464;2022-12-05T02:08:16;56.33;;;30.13;;
611;SDS011;293;53.888;11.464;2022-12-05T02:10:44;64.47;;;31.30;;
611;SDS011;293;53.888;11.464;2022-12-05T02:13:17;62.30;;;29.13;;
611;SDS011;293;53.888;11.464;2022-12-05T02:15:58;59.95;;;32.00;;
611;SDS011;293;53.888;11.464;2022-12-05T02:18:36;59.92;;;29.02;;
611;SDS011;293;53.888;11.464;2022-12-05T02:27:20;60.97;;;30.05;;
611;SDS011;293;53.888;11.464;2022-12-05T02:30:08;64.25;;;32.97;;
611;SDS011;293;53.888;11.464;2022-12-05T02:32:41;70.85;;;33.28;;
611;SDS011;293;53.888;11.464;2022-12-05T02:35:18;66.72;;;30.30;;
611;SDS011;293;53.888;11.464;2022-12-05T02:37:53;67.35;;;29.30;;
611;SDS011;293;53.888;11.464;2022-12-05T02:40:29;70.00;;;30.02;;
611;SDS011;293;53.888;11.464;2022-12-05T02:43:01;65.03;;;29.38;;
611;SDS011;293;53.888;11.464;2022-12-05T02:45:35;67.25;;;31.80;;
611;SDS011;293;53.888;11.464;2022-12-05T02:48:04;64.30;;;28.23;;
611;SDS011;293;53.888;11.464;2022-12-05T02:50:33;72.60;;;32.38;;
611;SDS011;293;53.888;11.464;2022-12-05T02:53:04;80.18;;;34.13;;
611;SDS011;293;53.888;11.464;2022-12-05T02:55:35;77.22;;;32.08;;
611;SDS011;293;53.888;11.464;2022-12-05T02:58:04;67.05;;;31.40;;
611;SDS011;293;53.888;11.464;2022-12-05T03:00:38;65.15;;;30.60;;
611;SDS011;293;53.888;11.464;2022-12-05T03:03:11;58.80;;;31.23;;
611;SDS011;293;53.888;11.464;2022-12-05T03:05:41;70.82;;;32.45;;
611;SDS011;293;53.888;11.464;2022-12-05T03:08:12;71.20;;;31.60;;
611;SDS011;293;53.888;11.464;2022-12-05T03:10:42;56.42;;;28.45;;
611;SDS011;293;53.888;11.464;2022-12-05T03:13:13;73.22;;;29.75;;
611;SDS011;293;53.888;11.464;2022-12-05T03:15:46;54.05;;;27.08;;
611;SDS011;293;53.888;11.464;2022-12-05T03:18:15;71.65;;;32.30;;
611;SDS011;293;53.888;11.464;2022-12-05T03:20:48;59.03;;;30.02;;
611;SDS011;293;53.888;11.464;2022-12-05T03:23:20;60.83;;;30.88;;
611;SDS011;293;53.888;11.464;2022-12-05T03:25:51;60.38;;;29.10;;
611;SDS011;293;53.888;11.464;2022-12-05T03:28:28;57.38;;;28.60;;
611;SDS011;293;53.888;11.464;2022-12-05T03:31:05;64.18;;;29.90;;
611;SDS011;293;53.888;11.464;2022-12-05T03:33:36;62.20;;;29.40;;
611;SDS011;293;53.888;11.464;2022-12-05T03:36:09;57.10;;;25.00;;
611;SDS011;293;53.888;11.464;2022-12-05T03:38:43;57.42;;;26.05;;
611;SDS011;293;53.888;11.464;2022-12-05T03:41:15;63.67;;;26.67;;
611;SDS011;293;53.888;11.464;2022-12-05T03:43:50;60.75;;;28.35;;
611;SDS011;293;53.888;11.464;2022-12-05T03:46:23;62.35;;;26.95;;
611;SDS011;293;53.888;11.464;2022-12-05T03:48:52;52.60;;;27.42;;
611;SDS011;293;53.888;11.464;2022-12-05T03:51:26;55.47;;;26.63;;
611;SDS011;293;53.888;11.464;2022-12-05T03:53:58;48.13;;;26.17;;
611;SDS011;293;53.888;11.464;2022-12-05T03:56:32;58.25;;;27.75;;
611;SDS011;293;53.888;11.464;2022-12-05T03:59:04;54.28;;;26.52;;
611;SDS011;293;53.888;11.464;2022-12-05T04:01:38;54.15;;;27.85;;
611;SDS011;293;53.888;11.464;2022-12-05T04:04:08;57.58;;;25.20;;
611;SDS011;293;53.888;11.464;2022-12-05T04:06:39;50.50;;;24.75;;
611;SDS011;293;53.888;11.464;2022-12-05T04:09:09;59.65;;;28.33;;
611;SDS011;293;53.888;11.464;2022-12-05T04:11:41;53.10;;;25.05;;
611;SDS011;293;53.888;11.464;2022-12-05T04:14:12;47.15;;;24.45;;
611;SDS011;293;53.888;11.464;2022-12-05T04:16:44;60.80;;;26.17;;
611;SDS011;293;53.888;11.464;2022-12-05T04:19:31;60.90;;;27.35;;
611;SDS011;293;53.888;11.464;2022-12-05T04:22:21;58.35;;;28.00;;
611;SDS011;293;53.888;11.464;2022-12-05T04:24:50;51.78;;;25.25;;
611;SDS011;293;53.888;11.464;2022-12-05T04:27:38;48.97;;;25.08;;
611;SDS011;293;53.888;11.464;2022-12-05T04:30:12;55.47;;;25.45;;
611;SDS011;293;53.888;11.464;2022-12-05T04:32:44;55.78;;;27.65;;
611;SDS011;293;53.888;11.464;2022-12-05T04:35:13;53.50;;;23.92;;
611;SDS011;293;53.888;11.464;2022-12-05T04:37:44;50.50;;;23.23;;
611;SDS011;293;53.888;11.464;2022-12-05T04:40:17;50.72;;;26.35;;
611;SDS011;293;53.888;11.464;2022-12-05T04:42:48;50.10;;;26.65;;
611;SDS011;293;53.888;11.464;2022-12-05T04:45:20;50.30;;;26.25;;
611;SDS011;293;53.888;11.464;2022-12-05T04:47:52;47.40;;;25.17;;
611;SDS011;293;53.888;11.464;2022-12-05T04:50:23;52.63;;;23.20;;
611;SDS011;293;53.888;11.464;2022-12-05T04:52:52;48.67;;;24.75;;
611;SDS011;293;53.888;11.464;2022-12-05T04:55:22;52.72;;;27.35;;
611;SDS011;293;53.888;11.464;2022-12-05T04:57:54;52.22;;;27.08;;
611;SDS011;293;53.888;11.464;2022-12-05T05:00:28;55.08;;;25.67;;
611;SDS011;293;53.888;11.464;2022-12-05T05:02:59;53.42;;;25.70;;
611;SDS011;293;53.888;11.464;2022-12-05T05:05:32;57.65;;;24.33;;
611;SDS011;293;53.888;11.464;2022-12-05T05:08:01;49.97;;;25.92;;
611;SDS011;293;53.888;11.464;2022-12-05T05:10:30;49.75;;;26.42;;
611;SDS011;293;53.888;11.464;2022-12-05T05:13:00;58.90;;;28.25;;
611;SDS011;293;53.888;11.464;2022-12-05T05:15:27;53.42;;;25.88;;
611;SDS011;293;53.888;11.464;2022-12-05T05:17:54;63.30;;;28.83;;
611;SDS011;293;53.888;11.464;2022-12-05T05:20:22;64.57;;;26.35;;
611;SDS011;293;53.888;11.464;2022-12-05T05:22:54;54.60;;;27.25;;
611;SDS011;293;53.888;11.464;2022-12-05T05:25:23;56.00;;;25.92;;
611;SDS011;293;53.888;11.464;2022-12-05T05:27:50;53.63;;;28.10;;
611;SDS011;293;53.888;11.464;2022-12-05T05:30:19;55.95;;;25.67;;
611;SDS011;293;53.888;11.464;2022-12-05T05:32:47;58.13;;;28.35;;
611;SDS011;293;53.888;11.464;2022-12-05T05:35:14;66.70;;;27.63;;
611;SDS011;293;53.888;11.464;2022-12-05T05:37:43;52.25;;;25.95;;
611;SDS011;293;53.888;11.464;2022-12-05T05:40:11;45.67;;;23.15;;
611;SDS011;293;53.888;11.464;2022-12-05T05:42:40;60.55;;;28.17;;
611;SDS011;293;53.888;11.464;2022-12-05T05:45:09;59.08;;;26.00;;
611;SDS011;293;53.888;11.464;2022-12-05T05:47:37;55.97;;;27.08;;
611;SDS011;293;53.888;11.464;2022-12-05T05:50:05;69.75;;;29.75;;
611;SDS011;293;53.888;11.464;2022-12-05T05:52:33;60.47;;;26.70;;
611;SDS011;293;53.888;11.464;2022-12-05T05:55:02;61.33;;;28.83;;
611;SDS011;293;53.888;11.464;2022-12-05T05:57:30;59.78;;;28.90;;
611;SDS011;293;53.888;11.464;2022-12-05T05:59:57;72.43;;;32.28;;
611;SDS011;293;53.888;11.464;2022-12-05T06:02:24;56.78;;;25.75;;
611;SDS011;293;53.888;11.464;2022-12-05T06:04:51;55.85;;;26.42;;
611;SDS011;293;53.888;11.464;2022-12-05T06:07:18;55.30;;;26.45;;
611;SDS011;293;53.888;11.464;2022-12-05T06:09:45;63.10;;;28.73;;
611;SDS011;293;53.888;11.464;2022-12-05T06:12:13;58.25;;;27.52;;
611;SDS011;293;53.888;11.464;2022-12-05T06:14:40;56.45;;;24.55;;
611;SDS011;293;53.888;11.464;2022-12-05T06:17:07;54.33;;;25.92;;
611;SDS011;293;53.888;11.464;2022-12-05T06:19:34;53.80;;;26.40;;
611;SDS011;293;53.888;11.464;2022-12-05T06:22:01;50.33;;;24.50;;
611;SDS011;293;53.888;11.464;2022-12-05T06:24:28;58.28;;;27.52;;
611;SDS011;293;53.888;11.464;2022-12-05T06:26:55;56.80;;;25.10;;
611;SDS011;293;53.888;11.464;2022-12-05T06:29:23;54.60;;;26.10;;
611;SDS011;293;53.888;11.464;2022-12-05T06:31:50;49.20;;;25.17;;
611;SDS011;293;53.888;11.464;2022-12-05T06:34:20;51.03;;;24.40;;
611;SDS011;293;53.888;11.464;2022-12-05T06:36:47;49.42;;;23.50;;
611;SDS011;293;53.888;11.464;2022-12-05T06:39:14;54.17;;;27.05;;
611;SDS011;293;53.888;11.464;2022-12-05T06:41:41;51.65;;;27.60;;
611;SDS011;293;53.888;11.464;2022-12-05T06:44:08;52.08;;;26.15;;
611;SDS011;293;53.888;11.464;2022-12-05T06:46:36;56.10;;;27.77;;
611;SDS011;293;53.888;11.464;2022-12-05T06:49:04;54.60;;;27.58;;
611;SDS011;293;53.888;11.464;2022-12-05T06:51:31;52.53;;;24.25;;
611;SDS011;293;53.888;11.464;2022-12-05T06:53:58;57.65;;;28.50;;
611;SDS011;293;53.888;11.464;2022-12-05T06:56:25;51.75;;;26.60;;
611;SDS011;293;53.888;11.464;2022-12-05T06:58:52;53.28;;;23.80;;
611;SDS011;293;53.888;11.464;2022-12-05T07:01:21;56.53;;;26.02;;
611;SDS011;293;53.888;11.464;2022-12-05T07:04:05;59.33;;;27.25;;
611;SDS011;293;53.888;11.464;2022-12-05T07:06:33;48.78;;;26.83;;
611;SDS011;293;53.888;11.464;2022-12-05T07:09:00;50.42;;;25.13;;
611;SDS011;293;53.888;11.464;2022-12-05T07:11:28;45.58;;;25.67;;
611;SDS011;293;53.888;11.464;2022-12-05T07:13:55;44.40;;;24.35;;
611;SDS011;293;53.888;11.464;2022-12-05T07:16:25;43.72;;;23.70;;
611;SDS011;293;53.888;11.464;2022-12-05T07:18:52;53.75;;;25.40;;
611;SDS011;293;53.888;11.464;2022-12-05T07:21:21;54.17;;;26.77;;
611;SDS011;293;53.888;11.464;2022-12-05T07:23:49;61.05;;;35.97;;
611;SDS011;293;53.888;11.464;2022-12-05T07:26:17;122.60;;;76.25;;
611;SDS011;293;53.888;11.464;2022-12-05T07:28:46;55.30;;;30.88;;
611;SDS011;293;53.888;11.464;2022-12-05T07:31:15;48.30;;;26.50;;
611;SDS011;293;53.888;11.464;2022-12-05T07:33:44;51.67;;;24.70;;
611;SDS011;293;53.888;11.464;2022-12-05T07:36:13;44.15;;;25.30;;
611;SDS011;293;53.888;11.464;2022-12-05T07:38:42;44.85;;;24.95;;
611;SDS011;293;53.888;11.464;2022-12-05T07:41:10;46.53;;;26.58;;
611;SDS011;293;53.888;11.464;2022-12-05T07:43:42;48.42;;;24.73;;
611;SDS011;293;53.888;11.464;2022-12-05T07:46:10;51.97;;;26.38;;
611;SDS011;293;53.888;11.464;2022-12-05T07:48:39;42.50;;;25.33;;
611;SDS011;293;53.888;11.464;2022-12-05T07:51:07;47.85;;;26.15;;
611;SDS011;293;53.888;11.464;2022-12-05T07:53:35;41.03;;;23.80;;
611;SDS011;293;53.888;11.464;2022-12-05T07:56:04;47.03;;;26.00;;
611;SDS011;293;53.888;11.464;2022-12-05T07:58:33;44.58;;;26.02;;
611;SDS011;293;53.888;11.464;2022-12-05T08:01:04;45.08;;;23.42;;
611;SDS011;293;53.888;11.464;2022-12-05T08:03:32;40.33;;;22.73;;
611;SDS011;293;53.888;11.464;2022-12-05T08:06:00;41.28;;;25.30;;
611;SDS011;293;53.888;11.464;2022-12-05T08:08:30;52.35;;;24.92;;
611;SDS011;293;53.888;11.464;2022-12-05T08:11:01;46.72;;;25.75;;
611;SDS011;293;53.888;11.464;2022-12-05T08:13:30;41.63;;;23.45;;
611;SDS011;293;53.888;11.464;2022-12-05T08:15:59;44.50;;;24.27;;
611;SDS011;293;53.888;11.464;2022-12-05T08:18:27;45.70;;;24.20;;
611;SDS011;293;53.888;11.464;2022-12-05T08:20:55;45.08;;;23.02;;
611;SDS011;293;53.888;11.464;2022-12-05T08:23:27;38.55;;;23.50;;
611;SDS011;293;53.888;11.464;2022-12-05T08:25:54;46.78;;;24.15;;
611;SDS011;293;53.888;11.464;2022-12-05T08:28:22;44.47;;;24.20;;
611;SDS011;293;53.888;11.464;2022-12-05T08:30:50;40.17;;;23.35;;
611;SDS011;293;53.888;11.464;2022-12-05T08:33:17;38.75;;;22.75;;
611;SDS011;293;53.888;11.464;2022-12-05T08:35:44;38.78;;;23.08;;
611;SDS011;293;53.888;11.464;2022-12-05T08:38:11;41.67;;;23.55;;
611;SDS011;293;53.888;11.464;2022-12-05T08:40:38;47.33;;;23.50;;
611;SDS011;293;53.888;11.464;2022-12-05T08:43:05;44.83;;;26.60;;
611;SDS011;293;53.888;11.464;2022-12-05T08:45:33;46.15;;;24.63;;
611;SDS011;293;53.888;11.464;2022-12-05T08:48:00;41.92;;;23.60;;
611;SDS011;293;53.888;11.464;2022-12-05T08:50:27;38.63;;;23.30;;
611;SDS011;293;53.888;11.464;2022-12-05T08:52:54;41.55;;;23.10;;
611;SDS011;293;53.888;11.464;2022-12-05T08:55:21;45.92;;;24.77;;
611;SDS011;293;53.888;11.464;2022-12-05T08:57:48;42.15;;;22.10;;
611;SDS011;293;53.888;11.464;2022-12-05T09:00:15;45.47;;;23.60;;
611;SDS011;293;53.888;11.464;2022-12-05T09:02:50;45.40;;;22.15;;
611;SDS011;293;53.888;11.464;2022-12-05T09:05:16;54.63;;;24.13;;
611;SDS011;293;53.888;11.464;2022-12-05T09:07:44;57.58;;;27.30;;
611;SDS011;293;53.888;11.464;2022-12-05T09:10:11;49.85;;;27.23;;
611;SDS011;293;53.888;11.464;2022-12-05T09:12:38;60.85;;;29.48;;
611;SDS011;293;53.888;11.464;2022-12-05T09:15:06;44.13;;;23.88;;
611;SDS011;293;53.888;11.464;2022-12-05T09:17:36;53.40;;;26.35;;
611;SDS011;293;53.888;11.464;2022-12-05T09:20:06;51.35;;;24.70;;
611;SDS011;293;53.888;11.464;2022-12-05T09:22:35;52.53;;;25.10;;
611;SDS011;293;53.888;11.464;2022-12-05T09:25:03;44.58;;;24.38;;
611;SDS011;293;53.888;11.464;2022-12-05T09:27:30;50.55;;;24.55;;
611;SDS011;293;53.888;11.464;2022-12-05T09:29:57;54.65;;;25.75;;
611;SDS011;293;53.888;11.464;2022-12-05T09:32:24;46.15;;;22.45;;
611;SDS011;293;53.888;11.464;2022-12-05T09:34:51;53.22;;;26.33;;
611;SDS011;293;53.888;11.464;2022-12-05T09:37:19;55.63;;;26.88;;
611;SDS011;293;53.888;11.464;2022-12-05T09:39:47;53.10;;;26.80;;
611;SDS011;293;53.888;11.464;2022-12-05T09:42:20;50.42;;;25.13;;
611;SDS011;293;53.888;11.464;2022-12-05T09:44:57;49.03;;;24.98;;
611;SDS011;293;53.888;11.464;2022-12-05T09:47:35;46.08;;;24.50;;
611;SDS011;293;53.888;11.464;2022-12-05T09:50:12;51.53;;;24.92;;
611;SDS011;293;53.888;11.464;2022-12-05T09:52:44;53.75;;;23.85;;
611;SDS011;293;53.888;11.464;2022-12-05T09:55:32;51.30;;;26.40;;
611;SDS011;293;53.888;11.464;2022-12-05T09:58:03;63.92;;;31.50;;
611;SDS011;293;53.888;11.464;2022-12-05T10:00:37;51.53;;;28.30;;
611;SDS011;293;53.888;11.464;2022-12-05T10:03:07;60.50;;;28.80;;
611;SDS011;293;53.888;11.464;2022-12-05T10:05:46;51.40;;;26.00;;
611;SDS011;293;53.888;11.464;2022-12-05T10:08:23;53.47;;;26.67;;
611;SDS011;293;53.888;11.464;2022-12-05T10:10:56;57.30;;;26.35;;
611;SDS011;293;53.888;11.464;2022-12-05T10:13:29;62.85;;;26.10;;
611;SDS011;293;53.888;11.464;2022-12-05T10:16:07;54.90;;;24.80;;
611;SDS011;293;53.888;11.464;2022-12-05T10:18:39;55.53;;;24.17;;
611;SDS011;293;53.888;11.464;2022-12-05T10:21:11;50.60;;;24.17;;
611;SDS011;293;53.888;11.464;2022-12-05T10:23:45;49.45;;;22.65;;
611;SDS011;293;53.888;11.464;2022-12-05T10:26:17;45.17;;;22.77;;
611;SDS011;293;53.888;11.464;2022-12-05T10:28:47;46.83;;;24.23;;
611;SDS011;293;53.888;11.464;2022-12-05T10:31:20;46.47;;;22.75;;
611;SDS011;293;53.888;11.464;2022-12-05T10:33:52;42.95;;;21.52;;
611;SDS011;293;53.888;11.464;2022-12-05T10:36:23;44.95;;;21.67;;
611;SDS011;293;53.888;11.464;2022-12-05T10:38:52;35.53;;;19.88;;
611;SDS011;293;53.888;11.464;2022-12-05T10:41:20;38.50;;;20.55;;
611;SDS011;293;53.888;11.464;2022-12-05T10:43:47;48.10;;;22.70;;
611;SDS011;293;53.888;11.464;2022-12-05T10:46:15;38.95;;;19.38;;
611;SDS011;293;53.888;11.464;2022-12-05T10:48:42;42.92;;;21.98;;
611;SDS011;293;53.888;11.464;2022-12-05T10:51:12;40.17;;;22.45;;
611;SDS011;293;53.888;11.464;2022-12-05T10:53:42;44.55;;;22.58;;
611;SDS011;293;53.888;11.464;2022-12-05T10:59:09;49.08;;;23.77;;
611;SDS011;293;53.888;11.464;2022-12-05T11:01:37;50.20;;;24.50;;
611;SDS011;293;53.888;11.464;2022-12-05T11:04:17;53.75;;;24.83;;
611;SDS011;293;53.888;11.464;2022-12-05T11:06:51;55.95;;;26.48;;
611;SDS011;293;53.888;11.464;2022-12-05T11:09:23;51.83;;;23.10;;
611;SDS011;293;53.888;11.464;2022-12-05T11:17:46;48.13;;;22.52;;
611;SDS011;293;53.888;11.464;2022-12-05T11:23:14;47.13;;;22.50;;
611;SDS011;293;53.888;11.464;2022-12-05T11:25:47;49.67;;;20.70;;
611;SDS011;293;53.888;11.464;2022-12-05T11:28:30;43.20;;;21.83;;
611;SDS011;293;53.888;11.464;2022-12-05T11:31:00;46.53;;;21.92;;
611;SDS011;293;53.888;11.464;2022-12-05T11:33:29;43.13;;;21.75;;
611;SDS011;293;53.888;11.464;2022-12-05T11:36:01;54.53;;;23.50;;
611;SDS011;293;53.888;11.464;2022-12-05T11:38:31;42.85;;;21.77;;
611;SDS011;293;53.888;11.464;2022-12-05T11:41:09;45.40;;;24.17;;
611;SDS011;293;53.888;11.464;2022-12-05T11:44:18;49.60;;;23.10;;
611;SDS011;293;53.888;11.464;2022-12-05T11:46:56;51.67;;;26.40;;
611;SDS011;293;53.888;11.464;2022-12-05T11:52:30;47.30;;;25.35;;
611;SDS011;293;53.888;11.464;2022-12-05T11:55:13;53.63;;;25.45;;
611;SDS011;293;53.888;11.464;2022-12-05T11:57:48;49.08;;;23.67;;
611;SDS011;293;53.888;11.464;2022-12-05T12:00:32;56.33;;;24.85;;
611;SDS011;293;53.888;11.464;2022-12-05T12:06:04;70.32;;;39.63;;
611;SDS011;293;53.888;11.464;2022-12-05T12:08:47;47.63;;;25.40;;
611;SDS011;293;53.888;11.464;2022-12-05T12:11:25;53.63;;;27.25;;
611;SDS011;293;53.888;11.464;2022-12-05T12:13:59;39.00;;;22.25;;
611;SDS011;293;53.888;11.464;2022-12-05T12:16:33;44.75;;;23.40;;
611;SDS011;293;53.888;11.464;2022-12-05T12:19:20;39.00;;;21.50;;
611;SDS011;293;53.888;11.464;2022-12-05T12:22:03;35.70;;;19.85;;
611;SDS011;293;53.888;11.464;2022-12-05T12:24:49;37.80;;;21.05;;
611;SDS011;293;53.888;11.464;2022-12-05T12:27:28;46.70;;;22.05;;
611;SDS011;293;53.888;11.464;2022-12-05T12:30:05;40.63;;;21.35;;
611;SDS011;293;53.888;11.464;2022-12-05T12:32:42;41.65;;;21.55;;
611;SDS011;293;53.888;11.464;2022-12-05T12:35:23;43.63;;;20.60;;
611;SDS011;293;53.888;11.464;2022-12-05T12:38:00;37.88;;;19.98;;
611;SDS011;293;53.888;11.464;2022-12-05T12:40:44;41.22;;;19.85;;
611;SDS011;293;53.888;11.464;2022-12-05T12:43:17;37.70;;;18.23;;
611;SDS011;293;53.888;11.464;2022-12-05T12:46:07;37.70;;;18.77;;
611;SDS011;293;53.888;11.464;2022-12-05T12:48:53;34.13;;;18.67;;
611;SDS011;293;53.888;11.464;2022-12-05T12:51:33;33.63;;;18.27;;
611;SDS011;293;53.888;11.464;2022-12-05T12:54:03;42.15;;;19.30;;
611;SDS011;293;53.888;11.464;2022-12-05T12:56:41;31.77;;;17.02;;
611;SDS011;293;53.888;11.464;2022-12-05T12:59:22;37.28;;;19.48;;
611;SDS011;293;53.888;11.464;2022-12-05T13:02:08;29.77;;;15.70;;
611;SDS011;293;53.888;11.464;2022-12-05T13:04:45;29.20;;;15.82;;
611;SDS011;293;53.888;11.464;2022-12-05T13:07:15;32.03;;;17.23;;
611;SDS011;293;53.888;11.464;2022-12-05T13:09:47;29.73;;;17.10;;
611;SDS011;293;53.888;11.464;2022-12-05T13:12:18;32.30;;;16.73;;
611;SDS011;293;53.888;11.464;2022-12-05T13:14:51;28.70;;;14.80;;
611;SDS011;293;53.888;11.464;2022-12-05T13:17:21;28.02;;;15.40;;
611;SDS011;293;53.888;11.464;2022-12-05T13:19:51;35.53;;;18.38;;
611;SDS011;293;53.888;11.464;2022-12-05T13:22:19;27.83;;;16.73;;
611;SDS011;293;53.888;11.464;2022-12-05T13:24:48;37.00;;;17.48;;
611;SDS011;293;53.888;11.464;2022-12-05T13:27:16;36.13;;;16.10;;
611;SDS011;293;53.888;11.464;2022-12-05T13:29:47;27.40;;;15.77;;
611;SDS011;293;53.888;11.464;2022-12-05T13:32:24;30.00;;;16.23;;
611;SDS011;293;53.888;11.464;2022-12-05T13:34:56;31.80;;;17.30;;
611;SDS011;293;53.888;11.464;2022-12-05T13:37:25;28.58;;;15.35;;
611;SDS011;293;53.888;11.464;2022-12-05T13:40:20;29.08;;;16.48;;
611;SDS011;293;53.888;11.464;2022-12-05T13:43:07;28.95;;;16.05;;
611;SDS011;293;53.888;11.464;2022-12-05T13:45:36;25.65;;;13.35;;
611;SDS011;293;53.888;11.464;2022-12-05T13:48:14;26.45;;;14.80;;
611;SDS011;293;53.888;11.464;2022-12-05T13:50:50;27.48;;;13.82;;
611;SDS011;293;53.888;11.464;2022-12-05T13:53:28;26.27;;;13.77;;
611;SDS011;293;53.888;11.464;2022-12-05T13:56:03;28.77;;;15.43;;
611;SDS011;293;53.888;11.464;2022-12-05T14:04:20;31.42;;;16.35;;
611;SDS011;293;53.888;11.464;2022-12-05T14:07:10;29.50;;;14.25;;
611;SDS011;293;53.888;11.464;2022-12-05T14:09:50;25.67;;;14.90;;
611;SDS011;293;53.888;11.464;2022-12-05T14:12:28;26.42;;;13.98;;
611;SDS011;293;53.888;11.464;2022-12-05T14:15:22;23.77;;;13.98;;
611;SDS011;293;53.888;11.464;2022-12-05T14:17:54;22.77;;;14.10;;
611;SDS011;293;53.888;11.464;2022-12-05T14:20:26;27.30;;;14.10;;
611;SDS011;293;53.888;11.464;2022-12-05T14:23:15;24.52;;;13.85;;
611;SDS011;293;53.888;11.464;2022-12-05T14:26:05;31.00;;;16.42;;
611;SDS011;293;53.888;11.464;2022-12-05T14:28:52;26.63;;;14.85;;
611;SDS011;293;53.888;11.464;2022-12-05T14:31:31;29.90;;;16.77;;
611;SDS011;293;53.888;11.464;2022-12-05T14:34:17;29.52;;;19.52;;
611;SDS011;293;53.888;11.464;2022-12-05T14:36:56;26.75;;;13.27;;
611;SDS011;293;53.888;11.464;2022-12-05T14:39:34;32.15;;;15.48;;
611;SDS011;293;53.888;11.464;2022-12-05T14:42:05;22.80;;;14.63;;
611;SDS011;293;53.888;11.464;2022-12-05T14:44:45;27.98;;;16.25;;
611;SDS011;293;53.888;11.464;2022-12-05T14:47:16;27.30;;;14.30;;
611;SDS011;293;53.888;11.464;2022-12-05T14:49:52;26.05;;;14.23;;
611;SDS011;293;53.888;11.464;2022-12-05T14:52:26;27.52;;;14.80;;
611;SDS011;293;53.888;11.464;2022-12-05T14:54:57;22.52;;;12.27;;
611;SDS011;293;53.888;11.464;2022-12-05T14:57:27;24.45;;;13.10;;
611;SDS011;293;53.888;11.464;2022-12-05T14:59:56;27.92;;;14.45;;
611;SDS011;293;53.888;11.464;2022-12-05T15:02:26;24.13;;;13.45;;
611;SDS011;293;53.888;11.464;2022-12-05T15:04:57;23.17;;;12.15;;
611;SDS011;293;53.888;11.464;2022-12-05T15:07:30;26.73;;;14.82;;
611;SDS011;293;53.888;11.464;2022-12-05T15:10:00;24.30;;;13.52;;
611;SDS011;293;53.888;11.464;2022-12-05T15:12:31;25.30;;;12.80;;
611;SDS011;293;53.888;11.464;2022-12-05T15:15:09;22.88;;;13.35;;
611;SDS011;293;53.888;11.464;2022-12-05T15:17:43;27.17;;;15.98;;
611;SDS011;293;53.888;11.464;2022-12-05T15:20:17;24.50;;;13.73;;
611;SDS011;293;53.888;11.464;2022-12-05T15:22:50;28.58;;;14.88;;
611;SDS011;293;53.888;11.464;2022-12-05T15:25:22;24.35;;;14.93;;
611;SDS011;293;53.888;11.464;2022-12-05T15:27:52;24.83;;;14.02;;
611;SDS011;293;53.888;11.464;2022-12-05T15:30:23;23.92;;;13.32;;
611;SDS011;293;53.888;11.464;2022-12-05T15:32:52;18.85;;;12.63;;
611;SDS011;293;53.888;11.464;2022-12-05T15:35:19;19.77;;;13.27;;
611;SDS011;293;53.888;11.464;2022-12-05T15:37:51;26.23;;;14.18;;
611;SDS011;293;53.888;11.464;2022-12-05T15:40:22;21.10;;;14.40;;
611;SDS011;293;53.888;11.464;2022-12-05T15:42:50;27.63;;;13.75;;
611;SDS011;293;53.888;11.464;2022-12-05T15:45:20;30.45;;;15.52;;
611;SDS011;293;53.888;11.464;2022-12-05T15:47:49;27.75;;;13.68;;
611;SDS011;293;53.888;11.464;2022-12-05T15:50:20;28.33;;;14.23;;
611;SDS011;293;53.888;11.464;2022-12-05T15:52:55;25.73;;;14.30;;
611;SDS011;293;53.888;11.464;2022-12-05T15:55:27;22.70;;;14.43;;
611;SDS011;293;53.888;11.464;2022-12-05T15:58:00;26.48;;;12.00;;